Seabourn Pride — C6FR5 — position and weather

sailwx.info

Track history (hours):
 
Tides and Currents Weather Stations Pressure Air Temp Water Temp Dewpoint Dewpoint Depression Visibility Wind Speed Wind Dir Waves Ship Positions

Seabourn Pride

Operator: Cunard Seabourn

Last reported at 2017-Aug-23 07:58 UTC. Time now 2017-Aug-23 08:05 UTC.
Position N 59°00' W 002°58'.

Length 134 m; draft 5.7 m.

Type: Ship. MMSI: 311084000.

Date/timePositionNaut miles runAvg speedWind from/ knotsBaromVisibWave heightAir tempDewpointWater temp
2017-Aug-23 07:58N 59°00' W 002°58'0 0.0
2017-Aug-23 07:28N 59°00' W 002°58'0 0.0
2017-Aug-23 06:58N 59°00' W 002°58'0 0.0
2017-Aug-23 06:30N 59°00' W 002°58'1 1.7
2017-Aug-23 06:00N 59°01' W 002°57'4 8.9
2017-Aug-23 05:30N 59°00' W 002°49'3 6.8
2017-Aug-23 05:00N 59°00' W 002°42'3 6.3
2017-Aug-23 04:30N 59°00' W 002°36'3 6.1
2017-Aug-23 04:00N 59°00' W 002°30'3 5.3
2017-Aug-23 03:23N 59°01' W 002°24'220 7.5
2017-Aug-21 22:05N 60°05' E 004°31'1 8.7
2017-Aug-21 22:00N 60°05' E 004°33'5 9.2
2017-Aug-21 21:30N 60°06' E 004°42'5 9.3
2017-Aug-21 21:00N 60°07' E 004°51'510.3
2017-Aug-21 20:30N 60°09' E 005°01'510.2
2017-Aug-21 20:00N 60°11' E 005°10'510.2
2017-Aug-21 19:30N 60°16' E 005°09'5 9.1
2017-Aug-21 19:01N 60°20' E 005°11'4 7.9
2017-Aug-21 18:29N 60°24' E 005°14'2 3.9
2017-Aug-21 17:55N 60°24' E 005°19'0 0.0
2017-Aug-21 17:25N 60°24' E 005°19'0 0.0
2017-Aug-21 16:58N 60°24' E 005°19'0 0.0
2017-Aug-21 16:28N 60°24' E 005°19'0 0.0
2017-Aug-21 15:58N 60°24' E 005°19'0 0.0
2017-Aug-21 15:28N 60°24' E 005°19'0 0.0
2017-Aug-21 14:58N 60°24' E 005°19'0 0.0
2017-Aug-21 14:28N 60°24' E 005°19'0 0.0
2017-Aug-21 13:58N 60°24' E 005°19'0 0.0
2017-Aug-21 13:28N 60°24' E 005°19'0 0.0
2017-Aug-21 12:52N 60°24' E 005°19'0 0.0
2017-Aug-21 12:28N 60°24' E 005°19'0 0.0
2017-Aug-21 11:58N 60°24' E 005°19'0 0.0
2017-Aug-21 11:13N 60°24' E 005°19'0 0.0
2017-Aug-21 10:58N 60°24' E 005°19'0 0.0
2017-Aug-21 10:22N 60°24' E 005°19'0 0.0
2017-Aug-21 09:52N 60°24' E 005°19'0 0.0
2017-Aug-21 09:28N 60°24' E 005°19'0 0.0
2017-Aug-21 08:58N 60°24' E 005°19'0 0.0
2017-Aug-21 08:28N 60°24' E 005°19'0 0.0
2017-Aug-21 07:58N 60°24' E 005°19'0 0.0
2017-Aug-21 07:25N 60°24' E 005°19'0 0.0
2017-Aug-21 06:49N 60°24' E 005°19'0 0.0
2017-Aug-21 06:30N 60°24' E 005°19'2 4.1
2017-Aug-21 06:00N 60°24' E 005°15'4 8.1
2017-Aug-21 05:30N 60°24' E 005°06'5 9.3
2017-Aug-21 05:00N 60°28' E 004°60'510.8
2017-Aug-21 04:30N 60°33' E 004°56'611.2
2017-Aug-21 04:00N 60°38' E 004°52'510.8
2017-Aug-21 03:30N 60°43' E 004°47'5 9.4
2017-Aug-21 03:00N 60°45' E 004°38'611.8
2017-Aug-21 02:30N 60°49' E 004°28'611.3
2017-Aug-21 02:00N 60°54' E 004°25'510.2
2017-Aug-21 01:30N 60°59' E 004°20'611.2
2017-Aug-21 00:59N 61°04' E 004°20'611.4
2017-Aug-21 00:30N 61°10' E 004°19'611.3
2017-Aug-20 23:59N 61°16' E 004°19'612.6
2017-Aug-20 23:30N 61°22' E 004°19'2312.0
2017-Aug-20 21:35N 61°45' E 004°23'111.9
2017-Aug-20 21:30N 61°46' E 004°24'611.8
2017-Aug-20 21:00N 61°51' E 004°29'4 8.4
2017-Aug-20 20:30N 61°55' E 004°32'5 9.6
2017-Aug-20 20:00N 61°60' E 004°35'5 9.7
2017-Aug-20 19:29N 62°04' E 004°40'510.1
2017-Aug-20 19:00N 62°08' E 004°47'510.2
2017-Aug-20 18:30N 62°12' E 004°52'5 9.9
2017-Aug-20 18:00N 62°17' E 004°58'5 9.5
2017-Aug-20 17:29N 62°20' E 005°04'5 9.6
2017-Aug-20 17:00N 62°24' E 005°11'510.4
2017-Aug-20 16:30N 62°26' E 005°21'510.8
2017-Aug-20 16:00N 62°28' E 005°32'510.2
2017-Aug-20 15:30N 62°30' E 005°42'510.4
2017-Aug-20 15:00N 62°28' E 005°53'510.6
2017-Aug-20 14:29N 62°27' E 006°04'3 4.8
2017-Aug-20 13:58N 62°28' E 006°09'0 0.0
2017-Aug-20 13:30N 62°28' E 006°09'0 0.0
2017-Aug-20 12:56N 62°28' E 006°09'0 0.0
2017-Aug-20 12:22N 62°28' E 006°09'0 0.0
2017-Aug-20 11:55N 62°28' E 006°09'0 0.0
2017-Aug-20 11:28N 62°28' E 006°09'0 0.0
2017-Aug-20 10:56N 62°28' E 006°09'0 0.0
2017-Aug-20 10:28N 62°28' E 006°09'0 0.0
2017-Aug-20 09:55N 62°28' E 006°09'0 0.0
2017-Aug-20 09:21N 62°28' E 006°09'0 0.0
2017-Aug-20 08:59N 62°28' E 006°09'0 0.0
2017-Aug-20 08:25N 62°28' E 006°09'0 0.0
2017-Aug-20 07:56N 62°28' E 006°09'0 0.0
2017-Aug-20 07:28N 62°28' E 006°09'0 0.0
2017-Aug-20 06:59N 62°28' E 006°09'0 0.0
2017-Aug-20 06:26N 62°28' E 006°09'0 0.0
2017-Aug-20 06:00N 62°28' E 006°09'0 0.0
2017-Aug-20 05:27N 62°28' E 006°09'0 0.0
2017-Aug-20 04:53N 62°28' E 006°09'0 0.0
2017-Aug-20 04:24N 62°28' E 006°09'0 0.0
2017-Aug-20 03:56N 62°28' E 006°09'0 0.0
2017-Aug-20 03:30N 62°28' E 006°09'0 0.0
2017-Aug-20 03:00N 62°28' E 006°09'1 1.9
2017-Aug-20 02:30N 62°27' E 006°10'510.5
2017-Aug-20 01:59N 62°27' E 005°58'5 9.8
2017-Aug-20 01:30N 62°29' E 005°48'510.3
2017-Aug-20 00:59N 62°31' E 005°38'0 0.5
2017-Aug-20 00:29N 62°31' E 005°38'3 6.7
2017-Aug-20 00:00N 62°30' E 005°45'4 7.6
2017-Aug-19 23:30N 62°28' E 005°51'5 9.4
2017-Aug-19 23:00N 62°26' E 006°01'611.0
2017-Aug-19 22:30N 62°23' E 006°11'611.3
2017-Aug-19 22:00N 62°24' E 006°23'611.2
2017-Aug-19 21:29N 62°26' E 006°35'510.6
2017-Aug-19 20:59N 62°27' E 006°47'510.4
2017-Aug-19 20:30N 62°24' E 006°56'510.5
2017-Aug-19 20:00N 62°19' E 006°58'510.3
2017-Aug-19 19:29N 62°14' E 007°01'510.1
2017-Aug-19 18:59N 62°09' E 006°59'4 7.8
2017-Aug-19 18:30N 62°05' E 007°02'4 9.0
2017-Aug-19 18:00N 62°07' E 007°11'0 0.6
2017-Aug-19 17:28N 62°06' E 007°12'0 0.0
2017-Aug-19 16:46N 62°06' E 007°12'0 0.0
2017-Aug-19 16:22N 62°06' E 007°12'0 0.0
2017-Aug-19 15:58N 62°06' E 007°12'0 0.0
2017-Aug-19 15:22N 62°06' E 007°12'0 0.0
2017-Aug-19 14:49N 62°06' E 007°12'0 0.0
2017-Aug-19 13:59N 62°06' E 007°12'0 0.0
2017-Aug-19 13:23N 62°06' E 007°12'0 0.0
2017-Aug-19 12:59N 62°06' E 007°12'0 0.0
2017-Aug-19 12:23N 62°06' E 007°12'0 0.0
2017-Aug-19 11:53N 62°06' E 007°12'0 0.0
2017-Aug-19 11:29N 62°06' E 007°12'0 0.0
2017-Aug-19 10:53N 62°06' E 007°12'0 0.0
2017-Aug-19 10:29N 62°06' E 007°12'0 0.0
2017-Aug-19 09:59N 62°06' E 007°12'0 0.0
2017-Aug-19 09:23N 62°06' E 007°12'0 0.0
2017-Aug-19 08:53N 62°06' E 007°12'0 0.0
2017-Aug-19 08:29N 62°06' E 007°12'0 0.0
2017-Aug-19 07:53N 62°06' E 007°12'0 0.0
2017-Aug-19 06:53N 62°06' E 007°12'0 0.1
2017-Aug-19 06:29N 62°06' E 007°12'2 4.1
2017-Aug-19 06:00N 62°07' E 007°07'5 9.0
2017-Aug-19 05:28N 62°07' E 006°57'511.0
2017-Aug-19 05:00N 62°12' E 007°02'611.3
2017-Aug-19 04:30N 62°17' E 007°01'611.2
2017-Aug-19 04:00N 62°22' E 006°55'510.1
2017-Aug-19 03:31N 62°27' E 006°50'610.6
2017-Aug-19 02:59N 62°27' E 006°38'611.0
2017-Aug-19 02:29N 62°25' E 006°26'510.9
2017-Aug-19 01:59N 62°23' E 006°15'510.1
2017-Aug-19 01:29N 62°24' E 006°04'510.4
2017-Aug-19 01:00N 62°27' E 005°55'4 9.1
2017-Aug-19 00:30N 62°29' E 005°47'4 7.9
2017-Aug-19 00:00N 62°32' E 005°40'4 7.4
2017-Aug-18 23:30N 62°33' E 005°33'4 7.3
2017-Aug-18 23:00N 62°35' E 005°26'3 5.1
2017-Aug-18 22:30N 62°33' E 005°24'4 8.2
2017-Aug-18 22:01N 62°31' E 005°33'4 8.4
2017-Aug-18 21:30N 62°30' E 005°41'510.3
2017-Aug-18 20:59N 62°27' E 005°51'510.6
2017-Aug-18 20:31N 62°27' E 006°02'5 9.9
2017-Aug-18 20:01N 62°31' E 006°09'510.5
2017-Aug-18 19:30N 62°36' E 006°16'510.3
2017-Aug-18 19:01N 62°38' E 006°26'610.8
2017-Aug-18 18:30N 62°39' E 006°38'511.0
2017-Aug-18 18:00N 62°41' E 006°49'510.9
2017-Aug-18 17:30N 62°42' E 006°60'5 3.1
2017-Aug-18 16:02N 62°44' E 007°09'0 0.0
2017-Aug-18 15:50N 62°44' E 007°09'0 0.0
2017-Aug-18 14:32N 62°44' E 007°09'0 0.0
2017-Aug-18 13:56N 62°44' E 007°09'0 0.0
2017-Aug-18 11:26N 62°44' E 007°09'0 0.0
2017-Aug-18 10:56N 62°44' E 007°09'0 0.0
2017-Aug-18 10:08N 62°44' E 007°09'0 0.0
2017-Aug-18 09:56N 62°44' E 007°09'0 0.0
2017-Aug-18 08:50N 62°44' E 007°09'0 0.0
2017-Aug-18 08:26N 62°44' E 007°09'0 0.0
2017-Aug-18 07:56N 62°44' E 007°09'0 0.0
2017-Aug-18 07:26N 62°44' E 007°09'0 0.0
2017-Aug-18 06:56N 62°44' E 007°09'0 0.0
2017-Aug-18 06:20N 62°44' E 007°09'0 0.0
2017-Aug-18 05:52N 62°44' E 007°09'0 0.4
2017-Aug-18 05:30N 62°44' E 007°10'5 9.4
2017-Aug-18 04:59N 62°42' E 006°59'511.4
2017-Aug-18 04:30N 62°40' E 006°48'611.5
2017-Aug-18 03:59N 62°38' E 006°36'611.6
2017-Aug-18 03:30N 62°37' E 006°24'611.6
2017-Aug-18 03:00N 62°35' E 006°13'611.5
2017-Aug-18 02:30N 62°29' E 006°08'510.9
2017-Aug-18 02:00N 62°27' E 005°57'510.0
2017-Aug-18 01:30N 62°29' E 005°47'510.5
2017-Aug-18 01:00N 62°31' E 005°37'510.7
2017-Aug-18 00:30N 62°31' E 005°25'612.0
2017-Aug-18 00:00N 62°30' E 005°12'611.6
2017-Aug-17 23:30N 62°30' E 004°60'  
Track history (hours):
 
Tides and Currents Weather Stations Pressure Air Temp Water Temp Dewpoint Dewpoint Depression Visibility Wind Speed Wind Dir Waves Ship Positions

Seabourn Pride

Operator: Cunard Seabourn

Last reported at 2017-Aug-23 07:58 UTC. Time now 2017-Aug-23 08:06 UTC.
Position N 59°00' W 002°58'.

Length 134 m; draft 5.7 m.

Type: Ship. MMSI: 311084000.

Date/timePositionNaut miles runAvg speedWind from/ knotsBaromVisibWave heightAir tempDewpointWater temp
2017-Aug-23 07:58N 59°00' W 002°58'0 0.0
2017-Aug-23 07:28N 59°00' W 002°58'0 0.0
2017-Aug-23 06:58N 59°00' W 002°58'0 0.0
2017-Aug-23 06:30N 59°00' W 002°58'1 1.7
2017-Aug-23 06:00N 59°01' W 002°57'4 8.9
2017-Aug-23 05:30N 59°00' W 002°49'3 6.8
2017-Aug-23 05:00N 59°00' W 002°42'3 6.3
2017-Aug-23 04:30N 59°00' W 002°36'3 6.1
2017-Aug-23 04:00N 59°00' W 002°30'3 5.3
2017-Aug-23 03:23N 59°01' W 002°24'220 7.5
2017-Aug-21 22:05N 60°05' E 004°31'1 8.7
2017-Aug-21 22:00N 60°05' E 004°33'5 9.2
2017-Aug-21 21:30N 60°06' E 004°42'5 9.3
2017-Aug-21 21:00N 60°07' E 004°51'510.3
2017-Aug-21 20:30N 60°09' E 005°01'510.2
2017-Aug-21 20:00N 60°11' E 005°10'510.2
2017-Aug-21 19:30N 60°16' E 005°09'5 9.1
2017-Aug-21 19:01N 60°20' E 005°11'4 7.9
2017-Aug-21 18:29N 60°24' E 005°14'2 3.9
2017-Aug-21 17:55N 60°24' E 005°19'0 0.0
2017-Aug-21 17:25N 60°24' E 005°19'0 0.0
2017-Aug-21 16:58N 60°24' E 005°19'0 0.0
2017-Aug-21 16:28N 60°24' E 005°19'0 0.0
2017-Aug-21 15:58N 60°24' E 005°19'0 0.0
2017-Aug-21 15:28N 60°24' E 005°19'0 0.0
2017-Aug-21 14:58N 60°24' E 005°19'0 0.0
2017-Aug-21 14:28N 60°24' E 005°19'0 0.0
2017-Aug-21 13:58N 60°24' E 005°19'0 0.0
2017-Aug-21 13:28N 60°24' E 005°19'0 0.0
2017-Aug-21 12:52N 60°24' E 005°19'0 0.0
2017-Aug-21 12:28N 60°24' E 005°19'0 0.0
2017-Aug-21 11:58N 60°24' E 005°19'0 0.0
2017-Aug-21 11:13N 60°24' E 005°19'0 0.0
2017-Aug-21 10:58N 60°24' E 005°19'0 0.0
2017-Aug-21 10:22N 60°24' E 005°19'0 0.0
2017-Aug-21 09:52N 60°24' E 005°19'0 0.0
2017-Aug-21 09:28N 60°24' E 005°19'0 0.0
2017-Aug-21 08:58N 60°24' E 005°19'0 0.0
2017-Aug-21 08:28N 60°24' E 005°19'0 0.0
2017-Aug-21 07:58N 60°24' E 005°19'0 0.0
2017-Aug-21 07:25N 60°24' E 005°19'0 0.0
2017-Aug-21 06:49N 60°24' E 005°19'0 0.0
2017-Aug-21 06:30N 60°24' E 005°19'2 4.1
2017-Aug-21 06:00N 60°24' E 005°15'4 8.1
2017-Aug-21 05:30N 60°24' E 005°06'5 9.3
2017-Aug-21 05:00N 60°28' E 004°60'510.8
2017-Aug-21 04:30N 60°33' E 004°56'611.2
2017-Aug-21 04:00N 60°38' E 004°52'510.8
2017-Aug-21 03:30N 60°43' E 004°47'5 9.4
2017-Aug-21 03:00N 60°45' E 004°38'611.8
2017-Aug-21 02:30N 60°49' E 004°28'611.3
2017-Aug-21 02:00N 60°54' E 004°25'510.2
2017-Aug-21 01:30N 60°59' E 004°20'611.2
2017-Aug-21 00:59N 61°04' E 004°20'611.4
2017-Aug-21 00:30N 61°10' E 004°19'611.3
2017-Aug-20 23:59N 61°16' E 004°19'612.6
2017-Aug-20 23:30N 61°22' E 004°19'2312.0
2017-Aug-20 21:35N 61°45' E 004°23'111.9
2017-Aug-20 21:30N 61°46' E 004°24'611.8
2017-Aug-20 21:00N 61°51' E 004°29'4 8.4
2017-Aug-20 20:30N 61°55' E 004°32'5 9.6
2017-Aug-20 20:00N 61°60' E 004°35'5 9.7
2017-Aug-20 19:29N 62°04' E 004°40'510.1
2017-Aug-20 19:00N 62°08' E 004°47'510.2
2017-Aug-20 18:30N 62°12' E 004°52'5 9.9
2017-Aug-20 18:00N 62°17' E 004°58'5 9.5
2017-Aug-20 17:29N 62°20' E 005°04'5 9.6
2017-Aug-20 17:00N 62°24' E 005°11'510.4
2017-Aug-20 16:30N 62°26' E 005°21'510.8
2017-Aug-20 16:00N 62°28' E 005°32'510.2
2017-Aug-20 15:30N 62°30' E 005°42'510.4
2017-Aug-20 15:00N 62°28' E 005°53'510.6
2017-Aug-20 14:29N 62°27' E 006°04'3 4.8
2017-Aug-20 13:58N 62°28' E 006°09'0 0.0
2017-Aug-20 13:30N 62°28' E 006°09'0 0.0
2017-Aug-20 12:56N 62°28' E 006°09'0 0.0
2017-Aug-20 12:22N 62°28' E 006°09'0 0.0
2017-Aug-20 11:55N 62°28' E 006°09'0 0.0
2017-Aug-20 11:28N 62°28' E 006°09'0 0.0
2017-Aug-20 10:56N 62°28' E 006°09'0 0.0
2017-Aug-20 10:28N 62°28' E 006°09'0 0.0
2017-Aug-20 09:55N 62°28' E 006°09'0 0.0
2017-Aug-20 09:21N 62°28' E 006°09'0 0.0
2017-Aug-20 08:59N 62°28' E 006°09'0 0.0
2017-Aug-20 08:25N 62°28' E 006°09'0 0.0
2017-Aug-20 07:56N 62°28' E 006°09'0 0.0
2017-Aug-20 07:28N 62°28' E 006°09'0 0.0
2017-Aug-20 06:59N 62°28' E 006°09'0 0.0
2017-Aug-20 06:26N 62°28' E 006°09'0 0.0
2017-Aug-20 06:00N 62°28' E 006°09'0 0.0
2017-Aug-20 05:27N 62°28' E 006°09'0 0.0
2017-Aug-20 04:53N 62°28' E 006°09'0 0.0
2017-Aug-20 04:24N 62°28' E 006°09'0 0.0
2017-Aug-20 03:56N 62°28' E 006°09'0 0.0
2017-Aug-20 03:30N 62°28' E 006°09'0 0.0
2017-Aug-20 03:00N 62°28' E 006°09'1 1.9
2017-Aug-20 02:30N 62°27' E 006°10'510.5
2017-Aug-20 01:59N 62°27' E 005°58'5 9.8
2017-Aug-20 01:30N 62°29' E 005°48'510.3
2017-Aug-20 00:59N 62°31' E 005°38'0 0.5
2017-Aug-20 00:29N 62°31' E 005°38'3 6.7
2017-Aug-20 00:00N 62°30' E 005°45'4 7.6
2017-Aug-19 23:30N 62°28' E 005°51'5 9.4
2017-Aug-19 23:00N 62°26' E 006°01'611.0
2017-Aug-19 22:30N 62°23' E 006°11'611.3
2017-Aug-19 22:00N 62°24' E 006°23'611.2
2017-Aug-19 21:29N 62°26' E 006°35'510.6
2017-Aug-19 20:59N 62°27' E 006°47'510.4
2017-Aug-19 20:30N 62°24' E 006°56'510.5
2017-Aug-19 20:00N 62°19' E 006°58'510.3
2017-Aug-19 19:29N 62°14' E 007°01'510.1
2017-Aug-19 18:59N 62°09' E 006°59'4 7.8
2017-Aug-19 18:30N 62°05' E 007°02'4 9.0
2017-Aug-19 18:00N 62°07' E 007°11'0 0.6
2017-Aug-19 17:28N 62°06' E 007°12'0 0.0
2017-Aug-19 16:46N 62°06' E 007°12'0 0.0
2017-Aug-19 16:22N 62°06' E 007°12'0 0.0
2017-Aug-19 15:58N 62°06' E 007°12'0 0.0
2017-Aug-19 15:22N 62°06' E 007°12'0 0.0
2017-Aug-19 14:49N 62°06' E 007°12'0 0.0
2017-Aug-19 13:59N 62°06' E 007°12'0 0.0
2017-Aug-19 13:23N 62°06' E 007°12'0 0.0
2017-Aug-19 12:59N 62°06' E 007°12'0 0.0
2017-Aug-19 12:23N 62°06' E 007°12'0 0.0
2017-Aug-19 11:53N 62°06' E 007°12'0 0.0
2017-Aug-19 11:29N 62°06' E 007°12'0 0.0
2017-Aug-19 10:53N 62°06' E 007°12'0 0.0
2017-Aug-19 10:29N 62°06' E 007°12'0 0.0
2017-Aug-19 09:59N 62°06' E 007°12'0 0.0
2017-Aug-19 09:23N 62°06' E 007°12'0 0.0
2017-Aug-19 08:53N 62°06' E 007°12'0 0.0
2017-Aug-19 08:29N 62°06' E 007°12'0 0.0
2017-Aug-19 07:53N 62°06' E 007°12'0 0.0
2017-Aug-19 06:53N 62°06' E 007°12'0 0.1
2017-Aug-19 06:29N 62°06' E 007°12'2 4.1
2017-Aug-19 06:00N 62°07' E 007°07'5 9.0
2017-Aug-19 05:28N 62°07' E 006°57'511.0
2017-Aug-19 05:00N 62°12' E 007°02'611.3
2017-Aug-19 04:30N 62°17' E 007°01'611.2
2017-Aug-19 04:00N 62°22' E 006°55'510.1
2017-Aug-19 03:31N 62°27' E 006°50'610.6
2017-Aug-19 02:59N 62°27' E 006°38'611.0
2017-Aug-19 02:29N 62°25' E 006°26'510.9
2017-Aug-19 01:59N 62°23' E 006°15'510.1
2017-Aug-19 01:29N 62°24' E 006°04'510.4
2017-Aug-19 01:00N 62°27' E 005°55'4 9.1
2017-Aug-19 00:30N 62°29' E 005°47'4 7.9
2017-Aug-19 00:00N 62°32' E 005°40'4 7.4
2017-Aug-18 23:30N 62°33' E 005°33'4 7.3
2017-Aug-18 23:00N 62°35' E 005°26'3 5.1
2017-Aug-18 22:30N 62°33' E 005°24'4 8.2
2017-Aug-18 22:01N 62°31' E 005°33'4 8.4
2017-Aug-18 21:30N 62°30' E 005°41'510.3
2017-Aug-18 20:59N 62°27' E 005°51'510.6
2017-Aug-18 20:31N 62°27' E 006°02'5 9.9
2017-Aug-18 20:01N 62°31' E 006°09'510.5
2017-Aug-18 19:30N 62°36' E 006°16'510.3
2017-Aug-18 19:01N 62°38' E 006°26'610.8
2017-Aug-18 18:30N 62°39' E 006°38'511.0
2017-Aug-18 18:00N 62°41' E 006°49'510.9
2017-Aug-18 17:30N 62°42' E 006°60'5 3.1
2017-Aug-18 16:02N 62°44' E 007°09'0 0.0
2017-Aug-18 15:50N 62°44' E 007°09'0 0.0
2017-Aug-18 14:32N 62°44' E 007°09'0 0.0
2017-Aug-18 13:56N 62°44' E 007°09'0 0.0
2017-Aug-18 11:26N 62°44' E 007°09'0 0.0
2017-Aug-18 10:56N 62°44' E 007°09'0 0.0
2017-Aug-18 10:08N 62°44' E 007°09'0 0.0
2017-Aug-18 09:56N 62°44' E 007°09'0 0.0
2017-Aug-18 08:50N 62°44' E 007°09'0 0.0
2017-Aug-18 08:26N 62°44' E 007°09'0 0.0
2017-Aug-18 07:56N 62°44' E 007°09'0 0.0
2017-Aug-18 07:26N 62°44' E 007°09'0 0.0
2017-Aug-18 06:56N 62°44' E 007°09'0 0.0
2017-Aug-18 06:20N 62°44' E 007°09'0 0.0
2017-Aug-18 05:52N 62°44' E 007°09'0 0.4
2017-Aug-18 05:30N 62°44' E 007°10'5 9.4
2017-Aug-18 04:59N 62°42' E 006°59'511.4
2017-Aug-18 04:30N 62°40' E 006°48'611.5
2017-Aug-18 03:59N 62°38' E 006°36'611.6
2017-Aug-18 03:30N 62°37' E 006°24'611.6
2017-Aug-18 03:00N 62°35' E 006°13'611.5
2017-Aug-18 02:30N 62°29' E 006°08'510.9
2017-Aug-18 02:00N 62°27' E 005°57'510.0
2017-Aug-18 01:30N 62°29' E 005°47'510.5
2017-Aug-18 01:00N 62°31' E 005°37'510.7
2017-Aug-18 00:30N 62°31' E 005°25'612.0
2017-Aug-18 00:00N 62°30' E 005°12'611.6
2017-Aug-17 23:30N 62°30' E 004°60'  

Dump ship's entire track history